Time;durP1;ratioP1;P1;durP2;ratioP2;P2;SDS_P1;SDS_P2;PMS_P1;PMS_P2;Temp;Humidity;BMP_temperature;BMP_pressure;BME280_temperature;BME280_humidity;BME280_pressure;Samples;Min_cycle;Max_cycle;Signal;HPM_P1;HPM_P2
2021/04/06 00:02:18;;;;;;;0.00;0.00;;;;;;;;;;5053779;28;20310;-58
2021/04/06 00:04:49;;;;;;;0.00;0.00;;;;;;;;;;5055511;28;20186;-57
2021/04/06 00:07:18;;;;;;;0.00;0.00;;;;;;;;;;5054355;28;20191;-57
2021/04/06 00:09:46;;;;;;;0.00;0.00;;;;;;;;;;5055785;28;20835;-57
2021/04/06 00:12:15;;;;;;;0.33;0.20;;;;;;;;;;5052511;28;20208;-58
2021/04/06 00:14:43;;;;;;;0.30;0.30;;;;;;;;;;5053483;28;20351;-57
2021/04/06 00:17:11;;;;;;;5.93;3.73;;;;;;;;;;5053494;28;20187;-58
2021/04/06 00:19:38;;;;;;;0.03;0.03;;;;;;;;;;5055363;28;20581;-58
2021/04/06 00:22:07;;;;;;;0.00;0.00;;;;;;;;;;5053419;28;20237;-57
2021/04/06 00:24:37;;;;;;;0.20;0.20;;;;;;;;;;5050658;28;20186;-58
2021/04/06 00:27:28;;;;;;;0.00;0.00;;;;;;;;;;5052529;28;20200;-57
2021/04/06 00:30:02;;;;;;;0.00;0.00;;;;;;;;;;5053624;28;20218;-58
2021/04/06 00:32:29;;;;;;;0.00;0.00;;;;;;;;;;5055898;28;20183;-58
2021/04/06 00:34:58;;;;;;;0.43;0.43;;;;;;;;;;5050713;28;20204;-58
2021/04/06 00:37:25;;;;;;;0.00;0.00;;;;;;;;;;5052425;28;20209;-58
2021/04/06 00:39:59;;;;;;;0.00;0.00;;;;;;;;;;5052049;28;20191;-58
2021/04/06 00:42:27;;;;;;;0.30;0.30;;;;;;;;;;5048503;28;20226;-57
2021/04/06 00:44:57;;;;;;;1.67;0.83;;;;;;;;;;5045977;28;20178;-58
2021/04/06 00:47:25;;;;;;;0.07;0.07;;;;;;;;;;5045719;28;20198;-58
2021/04/06 00:49:54;;;;;;;0.63;0.63;;;;;;;;;;5050683;28;20183;-58
2021/04/06 00:52:22;;;;;;;0.10;0.10;;;;;;;;;;5050193;28;20186;-56
2021/04/06 00:54:57;;;;;;;0.00;0.00;;;;;;;;;;5050292;28;20186;-57
2021/04/06 00:57:25;;;;;;;0.00;0.00;;;;;;;;;;5049454;28;20209;-57
2021/04/06 01:00:11;;;;;;;0.00;0.00;;;;;;;;;;5051045;28;20277;-58
2021/04/06 01:02:37;;;;;;;0.00;0.00;;;;;;;;;;5048872;28;20209;-58
2021/04/06 01:05:05;;;;;;;0.00;0.00;;;;;;;;;;5050759;28;20194;-58
2021/04/06 01:07:34;;;;;;;0.00;0.00;;;;;;;;;;5049423;28;20197;-57
2021/04/06 01:10:05;;;;;;;0.10;0.10;;;;;;;;;;5048438;28;20517;-58
2021/04/06 01:12:31;;;;;;;0.00;0.00;;;;;;;;;;5051328;28;20221;-57
2021/04/06 01:14:58;;;;;;;4.93;0.57;;;;;;;;;;5049520;28;20456;-57
2021/04/06 01:17:27;;;;;;;0.10;0.10;;;;;;;;;;5051034;28;20270;-58
2021/04/06 01:19:54;;;;;;;0.00;0.00;;;;;;;;;;5038646;28;20191;-58
2021/04/06 01:22:20;;;;;;;0.00;0.00;;;;;;;;;;5047563;28;20324;-58
2021/04/06 01:24:48;;;;;;;0.00;0.00;;;;;;;;;;5055354;28;20190;-54
2021/04/06 01:27:16;;;;;;;0.50;0.50;;;;;;;;;;5048474;28;20181;-57
2021/04/06 01:30:02;;;;;;;0.10;0.10;;;;;;;;;;5051050;28;20183;-55
2021/04/06 01:32:31;;;;;;;0.10;0.10;;;;;;;;;;5046546;28;20197;-57
2021/04/06 01:34:57;;;;;;;0.40;0.40;;;;;;;;;;5047310;28;20197;-55
2021/04/06 01:37:28;;;;;;;0.53;0.53;;;;;;;;;;5051084;28;20183;-57
2021/04/06 01:39:59;;;;;;;0.10;0.10;;;;;;;;;;5052204;28;20194;-58
2021/04/06 01:42:30;;;;;;;2.63;2.10;;;;;;;;;;5048202;28;20218;-57
2021/04/06 01:44:59;;;;;;;0.20;0.20;;;;;;;;;;5049032;28;20579;-58
2021/04/06 01:47:27;;;;;;;0.07;0.07;;;;;;;;;;5057694;28;20340;-55
2021/04/06 01:49:55;;;;;;;0.00;0.00;;;;;;;;;;5049581;28;20182;-58
2021/04/06 01:52:24;;;;;;;0.43;0.43;;;;;;;;;;5048172;28;20200;-59
2021/04/06 01:54:57;;;;;;;0.10;0.10;;;;;;;;;;5048024;28;21233;-59
2021/04/06 01:57:30;;;;;;;0.00;0.00;;;;;;;;;;5046964;28;20181;-59
2021/04/06 02:00:07;;;;;;;0.10;0.10;;;;;;;;;;5050320;28;20724;-58
2021/04/06 02:02:36;;;;;;;0.00;0.00;;;;;;;;;;5045382;28;20194;-58
2021/04/06 02:05:07;;;;;;;0.10;0.10;;;;;;;;;;5046325;28;20186;-58
2021/04/06 02:07:37;;;;;;;7.80;3.00;;;;;;;;;;5046018;28;20187;-59
2021/04/06 02:10:06;;;;;;;0.00;0.00;;;;;;;;;;5050003;28;20264;-58
2021/04/06 02:12:38;;;;;;;0.10;0.10;;;;;;;;;;5044812;28;20713;-58
2021/04/06 02:15:09;;;;;;;0.53;0.50;;;;;;;;;;5053295;28;20202;-59
2021/04/06 02:17:54;;;;;;;0.10;0.10;;;;;;;;;;5041919;28;20202;-58
2021/04/06 02:20:25;;;;;;;0.10;0.10;;;;;;;;;;5041393;28;20255;-58
2021/04/06 02:22:55;;;;;;;0.10;0.10;;;;;;;;;;5049433;28;20688;-58
2021/04/06 02:25:22;;;;;;;0.10;0.10;;;;;;;;;;5041397;28;20205;-60
2021/04/06 02:27:48;;;;;;;0.00;0.00;;;;;;;;;;5046575;28;20193;-59
2021/04/06 02:30:15;;;;;;;0.10;0.10;;;;;;;;;;5049700;28;20332;-59
2021/04/06 02:32:45;;;;;;;0.23;0.23;;;;;;;;;;5055802;28;20308;-59
2021/04/06 02:35:13;;;;;;;0.10;0.10;;;;;;;;;;5047027;28;20199;-59
2021/04/06 02:37:43;;;;;;;0.10;0.10;;;;;;;;;;5041040;28;20226;-60
2021/04/06 02:40:12;;;;;;;0.77;0.70;;;;;;;;;;5046134;28;20189;-59
2021/04/06 02:42:40;;;;;;;0.87;0.33;;;;;;;;;;5053602;28;20178;-59
2021/04/06 02:45:11;;;;;;;0.20;0.20;;;;;;;;;;5052305;28;20635;-59
2021/04/06 02:47:41;;;;;;;0.10;0.10;;;;;;;;;;5055035;28;20275;-59
2021/04/06 02:50:09;;;;;;;0.20;0.20;;;;;;;;;;5049185;28;20191;-59
2021/04/06 02:52:37;;;;;;;0.00;0.00;;;;;;;;;;5046378;28;20251;-59
2021/04/06 02:55:05;;;;;;;0.10;0.10;;;;;;;;;;5049610;28;20206;-59
2021/04/06 02:57:31;;;;;;;1.77;1.67;;;;;;;;;;5048824;28;20273;-60
2021/04/06 02:59:58;;;;;;;0.00;0.00;;;;;;;;;;5042301;28;20190;-59
2021/04/06 03:02:25;;;;;;;0.00;0.00;;;;;;;;;;5047077;28;20229;-59
2021/04/06 03:04:51;;;;;;;0.10;0.10;;;;;;;;;;5049743;28;20512;-59
2021/04/06 03:07:19;;;;;;;0.03;0.03;;;;;;;;;;5045563;28;20244;-58
2021/04/06 03:09:50;;;;;;;0.00;0.00;;;;;;;;;;5051737;28;20243;-58
2021/04/06 03:12:17;;;;;;;0.10;0.10;;;;;;;;;;5044368;28;20186;-60
2021/04/06 03:14:46;;;;;;;2.13;0.60;;;;;;;;;;5048885;28;20183;-60
2021/04/06 03:17:13;;;;;;;0.10;0.10;;;;;;;;;;5044334;28;20214;-60
2021/04/06 03:19:40;;;;;;;0.90;0.87;;;;;;;;;;5045763;28;20240;-59
2021/04/06 03:22:07;;;;;;;0.50;0.50;;;;;;;;;;5047773;28;20322;-59
2021/04/06 03:24:34;;;;;;;0.50;0.50;;;;;;;;;;5047906;28;20181;-59
2021/04/06 03:27:02;;;;;;;0.10;0.10;;;;;;;;;;5044674;28;20247;-59
2021/04/06 03:29:29;;;;;;;0.10;0.10;;;;;;;;;;5051837;28;20186;-59
2021/04/06 03:31:57;;;;;;;0.33;0.33;;;;;;;;;;5046432;28;20819;-60
2021/04/06 03:34:24;;;;;;;0.00;0.00;;;;;;;;;;5050173;28;20190;-59
2021/04/06 03:36:51;;;;;;;0.00;0.00;;;;;;;;;;5050457;28;20247;-60
2021/04/06 03:39:18;;;;;;;0.57;0.40;;;;;;;;;;5044972;28;20260;-59
2021/04/06 03:41:46;;;;;;;0.00;0.00;;;;;;;;;;5042749;28;20225;-60
2021/04/06 03:44:13;;;;;;;0.20;0.20;;;;;;;;;;5047060;28;20260;-59
2021/04/06 03:46:41;;;;;;;0.00;0.00;;;;;;;;;;5046357;28;20187;-59
2021/04/06 03:49:15;;;;;;;0.00;0.00;;;;;;;;;;5048148;28;20781;-59
2021/04/06 03:51:52;;;;;;;0.00;0.00;;;;;;;;;;5042616;28;20187;-59
2021/04/06 03:54:39;;;;;;;0.00;0.00;;;;;;;;;;5045904;28;20190;-59
2021/04/06 03:57:50;;;;;;;0.00;0.00;;;;;;;;;;5050023;28;20186;-59
2021/04/06 04:00:17;;;;;;;16.50;6.13;;;;;;;;;;5049003;28;20194;-59
2021/04/06 04:02:44;;;;;;;0.17;0.17;;;;;;;;;;5046394;28;21119;-59
2021/04/06 04:05:11;;;;;;;3.20;1.40;;;;;;;;;;5051165;28;20648;-60
2021/04/06 04:07:38;;;;;;;2.03;1.83;;;;;;;;;;5051104;28;20191;-60
2021/04/06 04:10:06;;;;;;;3.00;0.87;;;;;;;;;;5054846;28;20181;-59
2021/04/06 04:12:32;;;;;;;0.27;0.27;;;;;;;;;;5049524;28;20293;-60
2021/04/06 04:14:59;;;;;;;1.40;1.33;;;;;;;;;;5046055;28;20683;-59
2021/04/06 04:17:28;;;;;;;0.83;0.83;;;;;;;;;;5044572;28;20635;-59
2021/04/06 04:19:55;;;;;;;0.00;0.00;;;;;;;;;;5052249;28;20181;-59
2021/04/06 04:22:22;;;;;;;0.40;0.37;;;;;;;;;;5043874;28;20237;-59
2021/04/06 04:24:49;;;;;;;2.93;2.83;;;;;;;;;;5046381;28;20186;-59
2021/04/06 04:27:15;;;;;;;0.67;0.67;;;;;;;;;;5047137;28;20189;-59
2021/04/06 04:29:42;;;;;;;0.10;0.10;;;;;;;;;;5046228;28;20573;-59
2021/04/06 04:32:13;;;;;;;0.00;0.00;;;;;;;;;;5047751;28;20211;-59
2021/04/06 04:34:40;;;;;;;0.10;0.10;;;;;;;;;;5044432;28;20193;-59
2021/04/06 04:37:07;;;;;;;0.40;0.40;;;;;;;;;;5043728;28;20215;-59
2021/04/06 04:39:33;;;;;;;0.00;0.00;;;;;;;;;;5047518;28;20216;-59
2021/04/06 04:42:00;;;;;;;0.00;0.00;;;;;;;;;;5041646;28;20259;-59
2021/04/06 04:44:27;;;;;;;0.30;0.30;;;;;;;;;;5044085;28;20652;-59
2021/04/06 04:46:53;;;;;;;0.47;0.47;;;;;;;;;;5046719;28;20265;-59
2021/04/06 04:49:20;;;;;;;0.97;0.70;;;;;;;;;;5050937;28;20223;-59
2021/04/06 04:51:47;;;;;;;0.10;0.10;;;;;;;;;;5041164;28;20186;-59
2021/04/06 04:54:13;;;;;;;0.83;0.83;;;;;;;;;;5051965;28;20932;-59
2021/04/06 04:56:40;;;;;;;0.10;0.10;;;;;;;;;;5055520;28;20185;-58
2021/04/06 04:59:07;;;;;;;0.10;0.10;;;;;;;;;;5043389;28;20235;-59
2021/04/06 05:01:33;;;;;;;0.10;0.10;;;;;;;;;;5041958;28;20223;-58
2021/04/06 05:04:00;;;;;;;0.10;0.10;;;;;;;;;;5046802;28;20183;-58
2021/04/06 05:06:26;;;;;;;0.10;0.10;;;;;;;;;;5044511;28;20248;-57
2021/04/06 05:08:53;;;;;;;0.10;0.10;;;;;;;;;;5043536;28;21009;-57
2021/04/06 05:11:19;;;;;;;0.10;0.10;;;;;;;;;;5051349;28;20186;-57
2021/04/06 05:13:47;;;;;;;0.10;0.10;;;;;;;;;;5052650;28;20186;-58
2021/04/06 05:16:14;;;;;;;0.00;0.00;;;;;;;;;;5047613;28;20839;-57
2021/04/06 05:18:40;;;;;;;0.23;0.20;;;;;;;;;;5047710;28;20196;-59
2021/04/06 05:21:07;;;;;;;5.20;3.40;;;;;;;;;;5040606;28;20233;-58
2021/04/06 05:23:34;;;;;;;0.60;0.60;;;;;;;;;;5045787;28;20191;-58
2021/04/06 05:26:00;;;;;;;0.07;0.07;;;;;;;;;;5047583;28;20356;-58
2021/04/06 05:28:27;;;;;;;0.20;0.20;;;;;;;;;;5044411;28;20185;-58
2021/04/06 05:30:53;;;;;;;0.10;0.10;;;;;;;;;;5046717;28;20488;-56
2021/04/06 05:33:21;;;;;;;0.03;0.03;;;;;;;;;;5044340;28;20758;-59
2021/04/06 05:35:48;;;;;;;0.33;0.33;;;;;;;;;;5041783;28;20271;-57
2021/04/06 05:38:14;;;;;;;0.10;0.10;;;;;;;;;;5049324;28;20177;-58
2021/04/06 05:40:41;;;;;;;0.10;0.10;;;;;;;;;;5043507;28;20208;-58
2021/04/06 05:43:07;;;;;;;0.10;0.10;;;;;;;;;;5050801;28;20629;-58
2021/04/06 05:45:35;;;;;;;16.83;1.77;;;;;;;;;;5046750;28;20968;-58
2021/04/06 05:48:03;;;;;;;1.10;0.93;;;;;;;;;;5045300;28;20790;-56
2021/04/06 05:50:29;;;;;;;0.10;0.10;;;;;;;;;;5043979;28;20182;-59
2021/04/06 05:52:56;;;;;;;0.10;0.10;;;;;;;;;;5050873;28;20253;-59
2021/04/06 05:55:23;;;;;;;0.93;0.57;;;;;;;;;;5047131;28;20180;-59
2021/04/06 05:57:50;;;;;;;0.00;0.00;;;;;;;;;;5046161;28;20213;-60
2021/04/06 06:00:17;;;;;;;0.00;0.00;;;;;;;;;;5044884;28;20181;-59
2021/04/06 06:02:44;;;;;;;1.20;1.07;;;;;;;;;;5051069;28;20179;-59
2021/04/06 06:05:12;;;;;;;0.10;0.10;;;;;;;;;;5046738;28;20666;-57
2021/04/06 06:07:40;;;;;;;0.00;0.00;;;;;;;;;;5054399;28;20186;-57
2021/04/06 06:10:25;;;;;;;0.67;0.67;;;;;;;;;;5054839;28;20627;-58
2021/04/06 06:12:52;;;;;;;0.43;0.43;;;;;;;;;;5049881;28;20186;-58
2021/04/06 06:15:19;;;;;;;0.10;0.10;;;;;;;;;;5047986;28;20190;-58
2021/04/06 06:18:04;;;;;;;0.23;0.23;;;;;;;;;;5051178;28;20187;-57
2021/04/06 06:20:31;;;;;;;0.10;0.10;;;;;;;;;;5048982;28;20239;-57
2021/04/06 06:23:17;;;;;;;0.10;0.10;;;;;;;;;;5052413;28;20470;-57
2021/04/06 06:26:03;;;;;;;0.63;0.63;;;;;;;;;;5044958;28;20182;-57
2021/04/06 06:28:30;;;;;;;0.30;0.30;;;;;;;;;;5059400;28;20235;-58
2021/04/06 06:30:58;;;;;;;0.10;0.10;;;;;;;;;;5048257;28;20181;-58
2021/04/06 06:33:29;;;;;;;0.10;0.10;;;;;;;;;;5055837;28;20200;-56
2021/04/06 06:35:57;;;;;;;0.03;0.03;;;;;;;;;;5045661;28;20195;-58
2021/04/06 06:38:25;;;;;;;0.87;0.87;;;;;;;;;;5046074;28;20290;-58
2021/04/06 06:40:54;;;;;;;0.10;0.10;;;;;;;;;;5048244;28;20224;-58
2021/04/06 06:43:22;;;;;;;0.30;0.30;;;;;;;;;;5046171;28;20973;-58
2021/04/06 06:45:49;;;;;;;0.10;0.10;;;;;;;;;;5048629;28;20182;-58
2021/04/06 06:48:29;;;;;;;7.23;2.13;;;;;;;;;;5043640;28;20186;-58
2021/04/06 06:50:56;;;;;;;0.10;0.10;;;;;;;;;;5050956;28;20213;-58
2021/04/06 06:53:31;;;;;;;0.20;0.20;;;;;;;;;;5049256;28;20518;-59
2021/04/06 06:55:58;;;;;;;0.20;0.20;;;;;;;;;;5049447;28;20197;-55
2021/04/06 06:58:31;;;;;;;0.20;0.20;;;;;;;;;;5048848;28;20185;-55
2021/04/06 07:00:58;;;;;;;0.10;0.10;;;;;;;;;;5050781;28;20200;-54
2021/04/06 07:03:25;;;;;;;0.20;0.20;;;;;;;;;;5053574;28;20264;-56
2021/04/06 13:32:24;;;;;;;0.20;0.20;;;;;;;;;;5025675;27;2277329;-59
2021/04/06 13:34:51;;;;;;;0.00;0.00;;;;;;;;;;5097507;28;20851;-60
2021/04/06 13:37:17;;;;;;;0.00;0.00;;;;;;;;;;5098312;28;20243;-60
2021/04/06 13:39:44;;;;;;;0.40;0.30;;;;;;;;;;5097854;28;20190;-60
2021/04/06 13:42:11;;;;;;;0.00;0.00;;;;;;;;;;5097865;28;20601;-60
2021/04/06 13:44:39;;;;;;;0.00;0.00;;;;;;;;;;5098183;28;20186;-60
2021/04/06 13:47:05;;;;;;;0.00;0.00;;;;;;;;;;5098009;28;20282;-60
2021/04/06 13:49:32;;;;;;;0.00;0.00;;;;;;;;;;5098317;28;20193;-60
2021/04/06 13:51:59;;;;;;;0.30;0.20;;;;;;;;;;5098256;28;20195;-60
2021/04/06 13:54:25;;;;;;;0.00;0.00;;;;;;;;;;5098308;28;20182;-60
2021/04/06 13:56:52;;;;;;;0.10;0.00;;;;;;;;;;5098108;28;20181;-60
2021/04/06 13:59:20;;;;;;;0.00;0.00;;;;;;;;;;5098569;28;20897;-60
2021/04/06 14:01:47;;;;;;;0.00;0.00;;;;;;;;;;5094468;28;20650;-59
2021/04/06 14:04:14;;;;;;;1.70;0.37;;;;;;;;;;5098626;28;20202;-60
2021/04/06 14:06:40;;;;;;;0.10;0.10;;;;;;;;;;5098213;28;21051;-59
2021/04/06 14:09:07;;;;;;;0.00;0.00;;;;;;;;;;5097550;28;20186;-60
2021/04/06 14:11:34;;;;;;;0.00;0.00;;;;;;;;;;5098119;28;21025;-60
2021/04/06 14:14:00;;;;;;;2.20;0.70;;;;;;;;;;5098902;28;20185;-59
2021/04/06 14:16:29;;;;;;;0.00;0.00;;;;;;;;;;5097867;28;20197;-60
2021/04/06 14:18:56;;;;;;;0.07;0.03;;;;;;;;;;5097914;28;20192;-60
2021/04/06 14:21:22;;;;;;;1.20;1.10;;;;;;;;;;5097934;28;20178;-60
2021/04/06 14:23:51;;;;;;;0.33;0.13;;;;;;;;;;5097320;28;20263;-60
2021/04/06 14:26:19;;;;;;;1.60;0.63;;;;;;;;;;5091831;28;20191;-60
2021/04/06 14:28:46;;;;;;;2.70;0.63;;;;;;;;;;5095680;28;20186;-60
2021/04/06 14:31:13;;;;;;;0.77;0.40;;;;;;;;;;5097549;28;20228;-60
2021/04/06 14:33:40;;;;;;;0.10;0.10;;;;;;;;;;5097379;28;20250;-60
2021/04/06 14:36:08;;;;;;;0.47;0.10;;;;;;;;;;5098114;28;20205;-60
2021/04/06 14:38:34;;;;;;;7.17;0.70;;;;;;;;;;5098616;28;20281;-60
2021/04/06 14:41:01;;;;;;;0.00;0.00;;;;;;;;;;5091678;28;20177;-60
2021/04/06 14:43:37;;;;;;;1.00;0.60;;;;;;;;;;5083153;28;20201;-60
2021/04/06 14:46:05;;;;;;;0.23;0.10;;;;;;;;;;5084058;28;20196;-60
2021/04/06 14:48:35;;;;;;;0.00;0.00;;;;;;;;;;5083919;28;20506;-60
2021/04/06 14:51:03;;;;;;;0.73;0.10;;;;;;;;;;5084270;28;20673;-60
2021/04/06 14:53:30;;;;;;;2.30;0.20;;;;;;;;;;5084233;28;20285;-60
2021/04/06 14:55:57;;;;;;;0.00;0.00;;;;;;;;;;5083414;28;20183;-60
2021/04/06 14:58:34;;;;;;;0.20;0.10;;;;;;;;;;5084365;28;20278;-60
2021/04/06 15:01:01;;;;;;;0.20;0.20;;;;;;;;;;5083781;28;20262;-60
2021/04/06 15:03:30;;;;;;;0.00;0.00;;;;;;;;;;5079805;28;20185;-60
2021/04/06 15:05:57;;;;;;;0.00;0.00;;;;;;;;;;5083739;28;20189;-59
2021/04/06 15:08:24;;;;;;;0.10;0.10;;;;;;;;;;5084101;28;20350;-60
2021/04/06 15:10:55;;;;;;;0.00;0.00;;;;;;;;;;5079448;28;20459;-60
2021/04/06 15:13:22;;;;;;;0.20;0.20;;;;;;;;;;5083639;28;20179;-60
2021/04/06 15:15:49;;;;;;;6.17;0.50;;;;;;;;;;5065956;28;20190;-60
2021/04/06 15:18:16;;;;;;;0.00;0.00;;;;;;;;;;5077343;28;20263;-60
2021/04/06 15:20:42;;;;;;;2.67;0.50;;;;;;;;;;5083319;28;20268;-60
2021/04/06 15:23:10;;;;;;;0.30;0.10;;;;;;;;;;5083321;28;20195;-60
2021/04/06 15:25:38;;;;;;;0.00;0.00;;;;;;;;;;5082569;28;20178;-60
2021/04/06 15:28:05;;;;;;;0.20;0.20;;;;;;;;;;5084007;28;20243;-61
2021/04/06 15:30:32;;;;;;;0.00;0.00;;;;;;;;;;5084036;28;20265;-60
2021/04/06 15:33:08;;;;;;;1.57;0.60;;;;;;;;;;5083616;28;20267;-60
2021/04/06 15:35:36;;;;;;;0.00;0.00;;;;;;;;;;5083794;28;21037;-60
2021/04/06 15:38:16;;;;;;;0.63;0.63;;;;;;;;;;5083352;28;20209;-60
2021/04/06 15:40:46;;;;;;;3.80;2.33;;;;;;;;;;5082771;28;20181;-60
2021/04/06 15:43:13;;;;;;;0.93;0.10;;;;;;;;;;5082783;28;20186;-60
2021/04/06 15:45:40;;;;;;;0.10;0.10;;;;;;;;;;5083387;28;20271;-60
2021/04/06 15:48:06;;;;;;;0.00;0.00;;;;;;;;;;5083272;28;20276;-60
2021/04/06 15:50:35;;;;;;;0.23;0.23;;;;;;;;;;5081406;28;20802;-60
2021/04/06 15:53:06;;;;;;;1.03;1.03;;;;;;;;;;5082042;28;21163;-60
2021/04/06 15:55:33;;;;;;;0.10;0.10;;;;;;;;;;5080541;28;20208;-60
2021/04/06 15:57:59;;;;;;;0.00;0.00;;;;;;;;;;5081070;28;20193;-60
2021/04/06 16:00:27;;;;;;;0.00;0.00;;;;;;;;;;5080092;28;20241;-60
2021/04/06 16:02:54;;;;;;;0.00;0.00;;;;;;;;;;5079986;28;20176;-60
2021/04/06 16:05:25;;;;;;;0.10;0.10;;;;;;;;;;5081000;28;20201;-60
2021/04/06 16:07:54;;;;;;;0.37;0.37;;;;;;;;;;5081078;28;20186;-60
2021/04/06 16:10:23;;;;;;;0.00;0.00;;;;;;;;;;5080454;28;20191;-60
2021/04/06 16:12:50;;;;;;;6.03;2.20;;;;;;;;;;5082351;28;20183;-60
2021/04/06 16:15:19;;;;;;;2.73;0.90;;;;;;;;;;5080494;28;20187;-60
2021/04/06 16:17:47;;;;;;;0.23;0.23;;;;;;;;;;5079593;28;20184;-60
2021/04/06 16:20:15;;;;;;;0.00;0.00;;;;;;;;;;5079268;28;20759;-60
2021/04/06 16:22:42;;;;;;;0.50;0.00;;;;;;;;;;5081360;28;20183;-60
2021/04/06 16:25:11;;;;;;;0.00;0.00;;;;;;;;;;5079123;28;20957;-60
2021/04/06 16:27:39;;;;;;;0.20;0.00;;;;;;;;;;5081772;28;20731;-60
2021/04/06 16:30:06;;;;;;;0.60;0.40;;;;;;;;;;5081852;28;20184;-61
2021/04/06 16:32:33;;;;;;;0.70;0.50;;;;;;;;;;5077164;28;20317;-60
2021/04/06 16:35:00;;;;;;;0.83;0.63;;;;;;;;;;5081179;28;20182;-60
2021/04/06 16:37:27;;;;;;;0.90;0.13;;;;;;;;;;5081440;28;20741;-60
2021/04/06 16:39:53;;;;;;;2.53;0.17;;;;;;;;;;5081213;28;20185;-60
2021/04/06 16:42:20;;;;;;;0.00;0.00;;;;;;;;;;5077511;28;20309;-60
2021/04/06 16:44:47;;;;;;;0.00;0.00;;;;;;;;;;5081944;28;20202;-60
2021/04/06 16:47:14;;;;;;;0.40;0.07;;;;;;;;;;5081238;28;20183;-60
2021/04/06 16:49:42;;;;;;;0.30;0.17;;;;;;;;;;5081130;28;20201;-60
2021/04/06 16:52:09;;;;;;;0.00;0.00;;;;;;;;;;5081534;28;20214;-60
2021/04/06 16:54:36;;;;;;;3.33;0.37;;;;;;;;;;5080543;28;20187;-60
2021/04/06 16:57:03;;;;;;;0.00;0.00;;;;;;;;;;5081724;28;20653;-60
2021/04/06 16:59:30;;;;;;;0.03;0.03;;;;;;;;;;5082638;28;20566;-61
2021/04/06 17:01:56;;;;;;;0.00;0.00;;;;;;;;;;5081322;28;20187;-61
2021/04/06 17:04:23;;;;;;;0.37;0.37;;;;;;;;;;5077097;28;20188;-61
2021/04/06 17:06:50;;;;;;;0.10;0.10;;;;;;;;;;5082436;28;20723;-61
2021/04/06 17:09:17;;;;;;;0.10;0.10;;;;;;;;;;5080155;28;20185;-58
2021/04/06 17:11:44;;;;;;;0.07;0.07;;;;;;;;;;5080730;28;20619;-58
2021/04/06 17:14:10;;;;;;;0.00;0.00;;;;;;;;;;5081722;28;20185;-59
2021/04/06 17:16:37;;;;;;;0.20;0.20;;;;;;;;;;5081711;28;20273;-59
2021/04/06 17:19:04;;;;;;;0.57;0.57;;;;;;;;;;5081286;28;20188;-58
2021/04/06 17:21:30;;;;;;;0.00;0.00;;;;;;;;;;5081583;28;20193;-58
2021/04/06 17:23:57;;;;;;;0.00;0.00;;;;;;;;;;5081356;28;20203;-58
2021/04/06 17:26:26;;;;;;;1.97;0.83;;;;;;;;;;5081516;28;20186;-58
2021/04/06 17:28:54;;;;;;;0.13;0.13;;;;;;;;;;5079084;28;20213;-58
2021/04/06 17:31:22;;;;;;;0.20;0.20;;;;;;;;;;5081541;28;20708;-58
2021/04/06 17:33:49;;;;;;;0.10;0.10;;;;;;;;;;5082192;28;20217;-59
2021/04/06 17:36:16;;;;;;;0.07;0.07;;;;;;;;;;5081651;28;20679;-58
2021/04/06 17:38:42;;;;;;;2.53;0.63;;;;;;;;;;5081613;28;20185;-59
2021/04/06 17:41:11;;;;;;;0.00;0.00;;;;;;;;;;5081734;28;20223;-59
2021/04/06 17:43:39;;;;;;;0.13;0.03;;;;;;;;;;5081339;28;20182;-58
2021/04/06 17:46:06;;;;;;;0.83;0.70;;;;;;;;;;5080937;28;20192;-60
2021/04/06 17:48:33;;;;;;;0.20;0.20;;;;;;;;;;5081587;28;20178;-59
2021/04/06 17:51:00;;;;;;;3.23;0.57;;;;;;;;;;5081386;28;20335;-60
2021/04/06 17:53:28;;;;;;;0.67;0.53;;;;;;;;;;5081385;28;20210;-59
2021/04/06 17:55:54;;;;;;;0.03;0.03;;;;;;;;;;5075970;28;20277;-60
2021/04/06 17:58:22;;;;;;;0.10;0.10;;;;;;;;;;5080899;28;20188;-59
2021/04/06 18:00:50;;;;;;;2.20;0.30;;;;;;;;;;5081002;28;20676;-59
2021/04/06 18:03:18;;;;;;;0.17;0.17;;;;;;;;;;5080139;28;20194;-59
2021/04/06 18:05:44;;;;;;;0.13;0.00;;;;;;;;;;5080169;28;20693;-59
2021/04/06 18:08:15;;;;;;;2.53;0.20;;;;;;;;;;5081314;28;20197;-60
2021/04/06 18:10:43;;;;;;;3.50;0.43;;;;;;;;;;5062993;28;20211;-59
2021/04/06 18:13:09;;;;;;;0.00;0.00;;;;;;;;;;5081055;28;20359;-59
2021/04/06 18:15:36;;;;;;;0.33;0.20;;;;;;;;;;5081326;28;20183;-59
2021/04/06 18:18:03;;;;;;;0.50;0.50;;;;;;;;;;5082976;28;20188;-59
2021/04/06 18:20:30;;;;;;;0.00;0.00;;;;;;;;;;5084739;28;20260;-60
2021/04/06 18:22:57;;;;;;;0.20;0.20;;;;;;;;;;5081415;28;20588;-59
2021/04/06 18:25:25;;;;;;;0.00;0.00;;;;;;;;;;5084654;28;21022;-59
2021/04/06 18:27:54;;;;;;;0.00;0.00;;;;;;;;;;5085297;28;20198;-59
2021/04/06 18:30:22;;;;;;;0.00;0.00;;;;;;;;;;5083402;28;20201;-59
2021/04/06 18:32:50;;;;;;;0.37;0.20;;;;;;;;;;5080907;28;20188;-59
2021/04/06 18:35:18;;;;;;;0.10;0.10;;;;;;;;;;5081156;28;20906;-59
2021/04/06 18:37:45;;;;;;;0.00;0.00;;;;;;;;;;5083841;28;20277;-59
2021/04/06 18:40:12;;;;;;;0.00;0.00;;;;;;;;;;5083753;28;20194;-59
2021/04/06 18:42:39;;;;;;;0.23;0.20;;;;;;;;;;5083896;28;20544;-59
2021/04/06 18:45:07;;;;;;;0.20;0.13;;;;;;;;;;5083860;28;20195;-59
2021/04/06 18:47:34;;;;;;;0.00;0.00;;;;;;;;;;5084119;28;20720;-59
2021/04/06 18:50:01;;;;;;;0.00;0.00;;;;;;;;;;5084275;28;20333;-59
2021/04/06 18:52:27;;;;;;;0.10;0.10;;;;;;;;;;5084126;28;20217;-60
2021/04/06 18:54:54;;;;;;;0.00;0.00;;;;;;;;;;5083853;28;20198;-59
2021/04/06 18:57:22;;;;;;;0.83;0.40;;;;;;;;;;5083012;28;20194;-59
2021/04/06 18:59:49;;;;;;;0.13;0.13;;;;;;;;;;5083551;28;20566;-59
2021/04/06 19:02:17;;;;;;;0.20;0.20;;;;;;;;;;5083422;28;20201;-59
2021/04/06 19:04:43;;;;;;;0.00;0.00;;;;;;;;;;5083583;28;20190;-59
2021/04/06 19:07:10;;;;;;;0.00;0.00;;;;;;;;;;5083636;28;20198;-59
2021/04/06 19:09:36;;;;;;;1.80;1.07;;;;;;;;;;5075069;28;20259;-59
2021/04/06 19:12:03;;;;;;;2.63;0.97;;;;;;;;;;5083449;28;20206;-59
2021/04/06 19:14:29;;;;;;;0.27;0.20;;;;;;;;;;5079683;28;20989;-59
2021/04/06 19:16:56;;;;;;;0.20;0.20;;;;;;;;;;5083266;28;20186;-59
2021/04/06 19:19:23;;;;;;;0.00;0.00;;;;;;;;;;5083278;28;20212;-59
2021/04/06 19:21:49;;;;;;;0.10;0.10;;;;;;;;;;5082364;28;20197;-59
2021/04/06 19:24:16;;;;;;;0.30;0.30;;;;;;;;;;5079665;28;20193;-59
2021/04/06 19:26:43;;;;;;;0.10;0.10;;;;;;;;;;5082752;28;20179;-59
2021/04/06 19:29:09;;;;;;;0.07;0.07;;;;;;;;;;5083171;28;20250;-59
2021/04/06 19:31:37;;;;;;;0.33;0.33;;;;;;;;;;5082418;28;20238;-59
2021/04/06 19:34:11;;;;;;;0.00;0.00;;;;;;;;;;5082037;28;20214;-59
2021/04/06 19:36:38;;;;;;;0.40;0.40;;;;;;;;;;5079477;28;20177;-59
2021/04/06 19:39:06;;;;;;;1.13;0.30;;;;;;;;;;5080182;28;20889;-59
2021/04/06 19:41:36;;;;;;;0.20;0.20;;;;;;;;;;5078546;28;21068;-59
2021/04/06 19:44:02;;;;;;;12.13;0.40;;;;;;;;;;5080798;28;20199;-59
2021/04/06 19:46:29;;;;;;;0.13;0.13;;;;;;;;;;5079652;28;20220;-59
2021/04/06 19:48:58;;;;;;;1.20;0.10;;;;;;;;;;5079787;28;20187;-59
2021/04/06 19:51:24;;;;;;;0.03;0.03;;;;;;;;;;5076657;28;20263;-59
2021/04/06 19:53:51;;;;;;;1.80;0.20;;;;;;;;;;5074283;28;20282;-59
2021/04/06 19:56:18;;;;;;;0.20;0.10;;;;;;;;;;5081469;28;20202;-60
2021/04/06 19:58:44;;;;;;;0.00;0.00;;;;;;;;;;5080151;28;20182;-59
2021/04/06 20:01:11;;;;;;;0.00;0.00;;;;;;;;;;5073525;28;20179;-60
2021/04/06 20:03:39;;;;;;;0.33;0.33;;;;;;;;;;5079133;28;20183;-60
2021/04/06 20:06:11;;;;;;;0.00;0.00;;;;;;;;;;5081276;28;20185;-59
2021/04/06 20:08:39;;;;;;;0.00;0.00;;;;;;;;;;5073648;28;20186;-60
2021/04/06 20:11:05;;;;;;;0.20;0.20;;;;;;;;;;5079551;28;20217;-60
2021/04/06 20:13:33;;;;;;;0.40;0.40;;;;;;;;;;5078246;28;20184;-60
2021/04/06 20:16:08;;;;;;;0.20;0.20;;;;;;;;;;5067753;28;20931;-59
2021/04/06 20:18:36;;;;;;;2.30;0.47;;;;;;;;;;5058139;28;20174;-60
2021/04/06 20:21:07;;;;;;;0.60;0.57;;;;;;;;;;5070565;28;20186;-59
2021/04/06 20:23:34;;;;;;;0.00;0.00;;;;;;;;;;5076211;28;20182;-60
2021/04/06 20:26:03;;;;;;;0.63;0.07;;;;;;;;;;5073660;28;20187;-59
2021/04/06 20:28:31;;;;;;;0.00;0.00;;;;;;;;;;5076154;28;20206;-60
2021/04/06 20:30:59;;;;;;;0.00;0.00;;;;;;;;;;5076378;28;20230;-59
2021/04/06 20:33:38;;;;;;;0.30;0.30;;;;;;;;;;5075606;28;20194;-59
2021/04/06 20:36:08;;;;;;;0.63;0.63;;;;;;;;;;5076206;28;20175;-59
2021/04/06 20:38:36;;;;;;;0.10;0.10;;;;;;;;;;5079422;28;20189;-59
2021/04/06 20:41:03;;;;;;;0.00;0.00;;;;;;;;;;5060396;28;20397;-60
2021/04/06 20:43:31;;;;;;;1.60;0.23;;;;;;;;;;5079258;28;20190;-60
2021/04/06 20:45:58;;;;;;;0.67;0.67;;;;;;;;;;5078841;28;20187;-60
2021/04/06 20:48:26;;;;;;;0.00;0.00;;;;;;;;;;5078788;28;20186;-59
2021/04/06 20:50:53;;;;;;;0.10;0.10;;;;;;;;;;5079252;28;20190;-59
2021/04/06 20:53:19;;;;;;;0.00;0.00;;;;;;;;;;5079304;28;20178;-59
2021/04/06 20:55:46;;;;;;;0.37;0.37;;;;;;;;;;5077142;28;20277;-60
2021/04/06 20:58:13;;;;;;;0.00;0.00;;;;;;;;;;5079013;28;20691;-60
2021/04/06 21:00:40;;;;;;;0.00;0.00;;;;;;;;;;5075882;28;20366;-60
2021/04/06 21:03:08;;;;;;;0.00;0.00;;;;;;;;;;5079099;28;20214;-60
2021/04/06 21:05:35;;;;;;;0.00;0.00;;;;;;;;;;5079321;28;20353;-59
2021/04/06 21:08:02;;;;;;;0.00;0.00;;;;;;;;;;5078282;28;20198;-60
2021/04/06 21:10:29;;;;;;;0.00;0.00;;;;;;;;;;5078846;28;20822;-59
2021/04/06 21:12:56;;;;;;;0.00;0.00;;;;;;;;;;5076730;28;20279;-59
2021/04/06 21:15:23;;;;;;;0.00;0.00;;;;;;;;;;5073811;28;20182;-59
2021/04/06 21:17:50;;;;;;;0.13;0.07;;;;;;;;;;5072110;28;20178;-59